createdAt,value
2022-08-01T00:00:09.912Z,10.40
2022-08-01T00:03:01.902Z,8.40
2022-08-01T00:05:34.140Z,8.80
2022-08-01T00:08:06.289Z,6.10
2022-08-01T00:10:38.237Z,6.10
2022-08-01T00:13:10.490Z,9.90
2022-08-01T00:15:51.801Z,6.50
2022-08-01T00:18:26.233Z,6.10
2022-08-01T00:20:57.841Z,5.80
2022-08-01T00:23:30.080Z,6.90
2022-08-01T00:26:02.260Z,8.70
2022-08-01T00:28:34.052Z,6.40
2022-08-01T00:31:06.178Z,6.60
2022-08-01T00:33:38.002Z,7.10
2022-08-01T00:36:12.266Z,7.50
2022-08-01T00:38:44.592Z,6.30
2022-08-01T00:41:16.339Z,7.20
2022-08-01T00:43:48.012Z,7.40
2022-08-01T00:46:19.770Z,7.60
2022-08-01T00:48:51.628Z,6.40
2022-08-01T00:51:24.321Z,7.20
2022-08-01T00:56:28.682Z,6.90
2022-08-01T00:59:00.480Z,9.80
2022-08-01T01:01:39.853Z,6.30
2022-08-01T01:04:11.915Z,7.60
2022-08-01T01:06:51.016Z,10.00
2022-08-01T01:09:32.884Z,8.10
2022-08-01T01:12:15.586Z,9.50
2022-08-01T01:17:49.748Z,10.00
2022-08-01T01:20:23.614Z,11.10
2022-08-01T01:23:17.012Z,9.10
2022-08-01T01:26:04.261Z,14.30
2022-08-01T01:28:48.195Z,12.10
2022-08-01T01:31:23.673Z,14.30
2022-08-01T01:33:57.416Z,13.90
2022-08-01T01:36:32.067Z,17.30
2022-08-01T01:39:04.526Z,18.60
2022-08-01T01:41:38.464Z,16.50
2022-08-01T01:44:12.511Z,16.50
2022-08-01T01:46:45.981Z,13.80
2022-08-01T01:49:21.692Z,10.20
2022-08-01T01:52:02.632Z,12.40
2022-08-01T01:54:38.905Z,11.00
2022-08-01T01:57:13.910Z,10.20
2022-08-01T01:59:48.411Z,8.60
2022-08-01T02:02:21.077Z,11.00
2022-08-01T02:04:54.052Z,8.00
2022-08-01T02:07:28.441Z,7.20
2022-08-01T02:10:03.011Z,6.50
2022-08-01T02:12:38.396Z,6.60
2022-08-01T02:15:13.998Z,7.70
2022-08-01T02:17:50.868Z,13.40
2022-08-01T02:20:23.243Z,10.50
2022-08-01T02:22:59.840Z,7.50
2022-08-01T02:25:38.613Z,7.50
2022-08-01T02:28:14.426Z,9.20
2022-08-01T02:30:50.810Z,7.40
2022-08-01T02:33:26.773Z,6.60
2022-08-01T02:36:30.094Z,6.90
2022-08-01T02:38:56.692Z,7.90
2022-08-01T02:41:32.708Z,8.20
2022-08-01T02:44:07.272Z,10.30
2022-08-01T02:46:47.483Z,10.90
2022-08-01T02:49:22.085Z,8.10
2022-08-01T02:51:56.441Z,8.20
2022-08-01T02:54:31.107Z,8.90
2022-08-01T02:57:05.474Z,12.30
2022-08-01T02:59:41.700Z,10.20
2022-08-01T03:02:16.258Z,8.40
2022-08-01T03:04:52.624Z,10.20
2022-08-01T03:07:34.639Z,7.30
2022-08-01T03:10:12.604Z,8.00
2022-08-01T03:12:48.255Z,9.30
2022-08-01T03:15:21.564Z,7.30
2022-08-01T03:17:54.926Z,11.60
2022-08-01T03:20:28.791Z,7.90
2022-08-01T03:23:02.096Z,7.30
2022-08-01T03:25:36.867Z,10.10
2022-08-01T03:28:11.205Z,10.90
2022-08-01T03:30:44.794Z,9.50
2022-08-01T03:33:17.279Z,7.90
2022-08-01T03:35:54.734Z,8.10
2022-08-01T03:38:29.157Z,10.00
2022-08-01T03:41:05.206Z,9.60
2022-08-01T03:43:42.657Z,10.30
2022-08-01T03:46:21.152Z,10.50
2022-08-01T03:48:57.126Z,10.70
2022-08-01T03:51:29.642Z,8.40
2022-08-01T03:54:06.173Z,9.00
2022-08-01T03:56:39.405Z,16.30
2022-08-01T03:59:13.037Z,10.50
2022-08-01T04:01:45.521Z,11.40
2022-08-01T04:04:18.051Z,7.80
2022-08-01T04:06:52.186Z,7.60
2022-08-01T04:09:24.429Z,8.60
2022-08-01T04:11:56.078Z,8.60
2022-08-01T04:14:28.586Z,14.20
2022-08-01T04:19:30.565Z,9.90
2022-08-01T04:22:04.076Z,7.10
2022-08-01T04:24:38.325Z,11.80
2022-08-01T04:27:15.517Z,8.80
2022-08-01T04:29:51.435Z,11.30
2022-08-01T04:32:24.762Z,7.60
2022-08-01T04:35:01.023Z,7.60
2022-08-01T04:37:33.693Z,10.60
2022-08-01T04:42:36.358Z,9.00
2022-08-01T04:45:10.830Z,14.20
2022-08-01T04:47:44.542Z,8.40
2022-08-01T04:50:16.820Z,14.40
2022-08-01T04:52:48.596Z,8.70
2022-08-01T04:55:20.838Z,10.90
2022-08-01T04:57:54.172Z,13.00
2022-08-01T05:00:25.880Z,15.50
2022-08-01T05:02:57.885Z,13.10
2022-08-01T05:05:31.475Z,11.90
2022-08-01T05:08:03.161Z,12.70
2022-08-01T05:10:34.844Z,9.70
2022-08-01T05:13:07.545Z,11.60
2022-08-01T05:18:10.765Z,14.50
2022-08-01T05:20:42.677Z,11.00
2022-08-01T05:23:23.221Z,10.40
2022-08-01T05:26:06.369Z,11.40
2022-08-01T05:28:38.105Z,14.20
2022-08-01T05:31:09.803Z,14.20
2022-08-01T05:33:41.546Z,19.20
2022-08-01T05:36:13.570Z,13.90
2022-08-01T05:38:45.322Z,13.80
2022-08-01T05:41:17.053Z,13.50
2022-08-01T05:43:49.046Z,19.60
2022-08-01T05:46:20.812Z,13.30
2022-08-01T05:48:55.411Z,14.10
2022-08-01T05:51:27.576Z,13.10
2022-08-01T05:53:59.611Z,10.80
2022-08-01T05:56:32.463Z,9.70
2022-08-01T05:59:04.502Z,12.70
2022-08-01T06:01:38.500Z,14.90
2022-08-01T06:04:10.407Z,14.70
2022-08-01T06:06:42.462Z,12.10
2022-08-01T06:09:14.378Z,12.30
2022-08-01T06:11:46.577Z,11.10
2022-08-01T06:14:18.671Z,9.90
2022-08-01T06:16:50.920Z,15.30
2022-08-01T06:19:22.552Z,9.50
2022-08-01T06:21:54.269Z,10.60
2022-08-01T06:24:26.121Z,12.40
2022-08-01T06:26:57.957Z,16.40
2022-08-01T06:29:32.079Z,14.50
2022-08-01T06:32:04.522Z,10.30
2022-08-01T06:37:07.313Z,13.70
2022-08-01T06:39:40.116Z,15.30
2022-08-01T06:42:11.982Z,13.00
2022-08-01T06:44:43.677Z,22.30
2022-08-01T06:47:15.773Z,12.50
2022-08-01T06:49:47.609Z,18.40
2022-08-01T06:52:19.305Z,19.30
2022-08-01T06:54:51.173Z,16.80
2022-08-01T06:57:22.989Z,15.60
2022-08-01T06:59:55.148Z,20.70
2022-08-01T07:02:27.187Z,16.80
2022-08-01T07:05:01.436Z,18.00
2022-08-01T07:07:35.749Z,12.60
2022-08-01T07:10:09.916Z,14.80
2022-08-01T07:12:42.027Z,15.20
2022-08-01T07:15:14.865Z,19.70
2022-08-01T07:17:46.922Z,19.10
2022-08-01T07:20:19.127Z,14.40
2022-08-01T07:22:51.401Z,14.70
2022-08-01T07:25:23.471Z,18.00
2022-08-01T07:27:55.203Z,15.30
2022-08-01T07:30:27.741Z,18.30
2022-08-01T07:32:59.893Z,15.60
2022-08-01T07:35:31.735Z,16.70
2022-08-01T07:38:03.751Z,13.50
2022-08-01T07:40:35.699Z,16.40
2022-08-01T07:43:07.471Z,16.10
2022-08-01T07:45:39.139Z,19.00
2022-08-01T07:48:18.348Z,15.20
2022-08-01T07:50:50.187Z,18.70
2022-08-01T07:53:21.945Z,13.10
2022-08-01T07:55:53.955Z,14.10
2022-08-01T07:58:25.621Z,18.90
2022-08-01T08:00:57.319Z,13.60
2022-08-01T08:03:29.198Z,20.00
2022-08-01T08:06:01.171Z,14.70
2022-08-01T08:08:35.578Z,20.70
2022-08-01T08:11:07.411Z,18.60
2022-08-01T08:13:38.997Z,13.80
2022-08-01T08:16:10.731Z,13.80
2022-08-01T08:18:42.517Z,15.40
2022-08-01T08:21:14.246Z,17.90
2022-08-01T08:24:03.969Z,17.50
2022-08-01T08:26:35.809Z,14.60
2022-08-01T08:29:07.510Z,17.00
2022-08-01T08:31:51.947Z,17.00
2022-08-01T08:34:25.228Z,16.10
2022-08-01T08:36:58.888Z,16.50
2022-08-01T08:39:32.658Z,16.40
2022-08-01T08:42:14.613Z,16.30
2022-08-01T08:44:46.681Z,21.00
2022-08-01T08:47:20.772Z,13.00
2022-08-01T08:49:56.090Z,21.20
2022-08-01T08:52:28.309Z,11.80
2022-08-01T08:55:01.340Z,11.30
2022-08-01T08:57:34.265Z,15.00
2022-08-01T09:00:07.979Z,14.40
2022-08-01T09:02:42.270Z,15.30
2022-08-01T09:05:19.318Z,18.40
2022-08-01T09:07:51.589Z,13.30
2022-08-01T09:10:23.843Z,15.50
2022-08-01T09:13:12.116Z,12.90
2022-08-01T09:15:47.304Z,13.50
2022-08-01T09:18:34.842Z,18.40
2022-08-01T09:21:16.296Z,19.20
2022-08-01T09:23:54.201Z,14.70
2022-08-01T09:26:39.757Z,12.70
2022-08-01T09:29:37.534Z,12.20
2022-08-01T09:32:13.945Z,18.60
2022-08-01T09:34:48.132Z,13.20
2022-08-01T09:37:37.536Z,13.40
2022-08-01T09:40:12.632Z,15.70
2022-08-01T09:42:49.795Z,16.30
2022-08-01T09:48:29.540Z,13.30
2022-08-01T09:51:07.188Z,13.70
2022-08-01T09:53:51.147Z,15.90
2022-08-01T09:56:24.792Z,7.00
2022-08-01T09:59:01.963Z,8.50
2022-08-01T10:01:47.413Z,5.90
2022-08-01T10:04:21.214Z,5.50
2022-08-01T10:06:55.443Z,7.40
2022-08-01T10:09:40.721Z,6.00
2022-08-01T10:12:16.362Z,8.00
2022-08-01T10:14:51.278Z,11.90
2022-08-01T10:17:26.152Z,6.70
2022-08-01T10:20:30.512Z,7.50
2022-08-01T10:23:06.382Z,6.20
2022-08-01T10:25:46.588Z,9.20
2022-08-01T10:28:24.035Z,4.40
2022-08-01T10:30:59.154Z,4.30
2022-08-01T10:33:51.172Z,5.40
2022-08-01T10:36:26.482Z,4.40
2022-08-01T10:38:59.383Z,5.10
2022-08-01T10:41:31.734Z,6.30
2022-08-01T10:44:05.692Z,5.30
2022-08-01T10:46:40.184Z,4.50
2022-08-01T10:49:19.585Z,8.70
2022-08-01T10:51:54.706Z,3.90
2022-08-01T10:54:29.169Z,6.20
2022-08-01T10:57:03.811Z,4.40
2022-08-01T10:59:50.801Z,4.50
2022-08-01T11:02:35.657Z,4.10
2022-08-01T11:05:14.198Z,5.60
2022-08-01T11:07:55.058Z,6.90
2022-08-01T11:10:33.321Z,7.60
2022-08-01T11:13:08.464Z,6.30
2022-08-01T11:15:50.203Z,5.40
2022-08-01T11:18:37.796Z,8.70
2022-08-01T11:21:56.405Z,5.00
2022-08-01T11:24:02.208Z,9.10
2022-08-01T11:26:33.940Z,6.80
2022-08-01T11:29:22.411Z,9.80
2022-08-01T11:31:54.828Z,11.70
2022-08-01T11:34:58.244Z,8.20
2022-08-01T11:37:31.149Z,18.60
2022-08-01T11:40:25.007Z,13.20
2022-08-01T11:43:19.754Z,6.70
2022-08-01T11:45:54.199Z,8.20
2022-08-01T11:48:28.926Z,6.00
2022-08-01T11:51:03.074Z,5.70
2022-08-01T11:53:34.813Z,7.60
2022-08-01T11:56:09.756Z,6.20
2022-08-01T11:58:41.530Z,9.30
2022-08-01T12:01:16.468Z,6.10
2022-08-01T12:03:57.528Z,7.50
2022-08-01T12:06:32.118Z,5.70
2022-08-01T12:09:21.360Z,8.40
2022-08-01T12:11:54.352Z,5.90
2022-08-01T12:14:26.770Z,7.80
2022-08-01T12:16:58.974Z,8.60
2022-08-01T12:19:31.772Z,12.90
2022-08-01T12:22:12.967Z,6.00
2022-08-01T12:24:45.541Z,6.20
2022-08-01T12:27:28.135Z,6.00
2022-08-01T12:32:35.937Z,5.90
2022-08-01T12:35:11.604Z,5.90
2022-08-01T12:37:46.515Z,8.00
2022-08-01T12:40:20.609Z,4.60
2022-08-01T12:42:54.705Z,6.30
2022-08-01T12:45:28.699Z,10.60
2022-08-01T12:48:02.186Z,4.80
2022-08-01T12:50:36.583Z,5.30
2022-08-01T12:53:10.592Z,5.70
2022-08-01T12:55:58.551Z,4.50
2022-08-01T12:58:36.121Z,4.00
2022-08-01T13:01:09.530Z,3.80
2022-08-01T13:03:41.997Z,4.20
2022-08-01T13:06:18.214Z,4.00
2022-08-01T13:08:50.167Z,4.40
2022-08-01T13:11:22.392Z,5.60
2022-08-01T13:13:54.777Z,9.20
2022-08-01T13:19:18.643Z,5.60
2022-08-01T13:22:01.097Z,4.30
2022-08-01T13:24:34.901Z,4.10
2022-08-01T13:27:07.587Z,5.20
2022-08-01T13:29:42.475Z,4.30
2022-08-01T13:32:28.061Z,7.10
2022-08-01T13:35:10.364Z,6.60
2022-08-01T13:37:44.278Z,5.80
2022-08-01T13:40:27.445Z,6.20
2022-08-01T13:42:59.237Z,7.00
2022-08-01T13:45:31.289Z,5.80
2022-08-01T13:48:13.064Z,6.80
2022-08-01T13:51:02.225Z,4.90
2022-08-01T13:53:42.624Z,6.20
2022-08-01T13:56:14.611Z,6.40
2022-08-01T13:58:46.727Z,5.80
2022-08-01T14:01:18.804Z,5.60
2022-08-01T14:03:52.064Z,6.50
2022-08-01T14:06:24.383Z,6.70
2022-08-01T14:08:56.152Z,7.40
2022-08-01T14:11:30.315Z,6.10
2022-08-01T14:14:09.571Z,7.00
2022-08-01T14:16:41.284Z,7.70
2022-08-01T14:19:14.050Z,8.40
2022-08-01T14:21:45.843Z,20.20
2022-08-01T14:24:18.835Z,6.70
2022-08-01T14:26:50.683Z,6.30
2022-08-01T14:29:22.447Z,6.70
2022-08-01T14:31:54.188Z,5.90
2022-08-01T14:34:25.931Z,8.70
2022-08-01T14:36:57.667Z,6.10
2022-08-01T14:39:29.526Z,8.80
2022-08-01T14:42:01.708Z,6.50
2022-08-01T14:44:33.483Z,4.50
2022-08-01T14:47:21.337Z,7.00
2022-08-01T14:49:55.323Z,4.80
2022-08-01T14:52:27.404Z,4.90
2022-08-01T14:54:59.874Z,4.60
2022-08-01T14:57:32.019Z,4.40
2022-08-01T15:00:05.810Z,6.60
2022-08-01T15:02:37.639Z,5.10
2022-08-01T15:05:11.310Z,5.90
2022-08-01T15:07:52.308Z,4.30
2022-08-01T15:10:25.918Z,5.60
2022-08-01T15:12:59.532Z,4.70
2022-08-01T15:15:31.860Z,5.20
2022-08-01T15:20:34.384Z,4.30
2022-08-01T15:23:07.238Z,6.20
2022-08-01T15:25:41.899Z,4.20
2022-08-01T15:28:15.706Z,3.90
2022-08-01T15:30:47.712Z,8.50
2022-08-01T15:33:19.432Z,3.30
2022-08-01T15:35:53.083Z,3.60
2022-08-01T15:38:25.109Z,3.10
2022-08-01T15:40:56.900Z,11.70
2022-08-01T15:43:28.652Z,4.50
2022-08-01T15:46:01.242Z,6.80
2022-08-01T15:48:38.278Z,6.80
2022-08-01T15:51:11.949Z,3.80
2022-08-01T15:53:43.871Z,6.50
2022-08-01T15:56:16.069Z,4.40
2022-08-01T15:58:47.985Z,5.80
2022-08-01T16:01:20.429Z,4.30
2022-08-01T16:06:22.734Z,6.10
2022-08-01T16:08:54.880Z,5.10
2022-08-01T16:11:27.954Z,5.00
2022-08-01T16:14:00.686Z,3.60
2022-08-01T16:16:32.606Z,3.40
2022-08-01T16:19:05.765Z,4.90
2022-08-01T16:21:37.477Z,3.80
2022-08-01T16:24:11.866Z,5.40
2022-08-01T16:26:44.128Z,8.40
2022-08-01T16:29:15.880Z,4.10
2022-08-01T16:32:08.093Z,6.20
2022-08-01T16:34:46.666Z,5.20
2022-08-01T16:37:18.910Z,5.80
2022-08-01T16:39:50.721Z,11.90
2022-08-01T16:42:23.203Z,7.80
2022-08-01T16:45:00.305Z,6.40
2022-08-01T16:47:32.022Z,5.80
2022-08-01T16:50:06.213Z,4.10
2022-08-01T16:52:41.778Z,10.00
2022-08-01T16:55:14.144Z,6.80
2022-08-01T16:57:46.060Z,7.40
2022-08-01T17:00:22.729Z,6.30
2022-08-01T17:02:54.981Z,5.30
2022-08-01T17:05:28.612Z,5.20
2022-08-01T17:08:00.385Z,7.90
2022-08-01T17:10:32.223Z,5.20
2022-08-01T17:13:05.140Z,7.00
2022-08-01T17:15:37.541Z,7.00
2022-08-01T17:18:09.817Z,5.40
2022-08-01T17:20:48.523Z,5.30
2022-08-01T17:23:20.554Z,5.20
2022-08-01T17:25:52.831Z,6.40
2022-08-01T17:28:26.262Z,9.40
2022-08-01T17:30:58.214Z,6.60
2022-08-01T17:33:45.583Z,5.50
2022-08-01T17:36:21.114Z,13.30
2022-08-01T17:38:52.801Z,17.90
2022-08-01T17:41:24.650Z,6.40
2022-08-01T17:43:56.905Z,7.90
2022-08-01T17:46:28.739Z,33.40
2022-08-01T17:49:01.873Z,6.10
2022-08-01T17:51:37.039Z,18.70
2022-08-01T17:54:11.640Z,7.90
2022-08-01T17:56:46.083Z,6.40
2022-08-01T17:59:18.012Z,7.20
2022-08-01T18:01:49.767Z,8.10
2022-08-01T18:04:21.509Z,7.80
2022-08-01T18:06:58.470Z,10.40
2022-08-01T18:09:45.676Z,9.50
2022-08-01T18:12:23.379Z,5.60
2022-08-01T18:15:03.425Z,24.20
2022-08-01T18:17:35.918Z,6.40
2022-08-01T18:22:39.452Z,9.20
2022-08-01T18:25:12.112Z,6.20
2022-08-01T18:30:35.458Z,8.90
2022-08-01T18:33:07.365Z,8.00
2022-08-01T18:35:51.929Z,8.40
2022-08-01T18:38:25.085Z,6.30
2022-08-01T18:40:57.646Z,6.30
2022-08-01T18:43:29.806Z,6.80
2022-08-01T18:46:03.093Z,8.70
2022-08-01T18:48:35.062Z,4.60
2022-08-01T18:51:08.531Z,4.60
2022-08-01T18:53:43.434Z,8.40
2022-08-01T18:56:19.113Z,3.90
2022-08-01T18:58:51.567Z,7.00
2022-08-01T19:01:23.894Z,6.50
2022-08-01T19:03:55.925Z,6.40
2022-08-01T19:06:28.396Z,20.60
2022-08-01T19:11:35.509Z,16.40
2022-08-01T19:14:08.089Z,5.90
2022-08-01T19:19:10.475Z,6.80
2022-08-01T19:21:44.910Z,8.50
2022-08-01T19:24:22.618Z,9.00
2022-08-01T19:26:57.355Z,7.40
2022-08-01T19:29:36.218Z,7.70
2022-08-01T19:32:11.231Z,6.70
2022-08-01T19:34:54.684Z,8.50
2022-08-01T19:37:27.513Z,8.30
2022-08-01T19:39:59.875Z,8.70
2022-08-01T19:42:31.855Z,7.40
2022-08-01T19:45:06.068Z,8.60
2022-08-01T19:47:51.764Z,8.40
2022-08-01T19:50:30.378Z,14.70
2022-08-01T19:53:04.853Z,7.60
2022-08-01T19:55:39.902Z,12.20
2022-08-01T19:58:28.816Z,13.00
2022-08-01T20:01:00.772Z,7.90
2022-08-01T20:03:35.331Z,8.70
2022-08-01T20:06:07.863Z,12.70
2022-08-01T20:08:41.489Z,10.60
2022-08-01T20:11:14.612Z,8.60
2022-08-01T20:13:49.540Z,9.10
2022-08-01T20:16:21.706Z,10.90
2022-08-01T20:18:53.917Z,12.90
2022-08-01T20:21:27.658Z,15.70
2022-08-01T20:24:03.304Z,12.00
2022-08-01T20:26:37.525Z,19.30
2022-08-01T20:29:09.250Z,8.30
2022-08-01T20:31:44.275Z,8.60
2022-08-01T20:34:21.284Z,12.20
2022-08-01T20:36:56.481Z,10.30
2022-08-01T20:39:31.126Z,9.40
2022-08-01T20:42:04.767Z,13.90
2022-08-01T20:44:37.204Z,9.30
2022-08-01T20:47:09.645Z,11.20
2022-08-01T20:49:44.475Z,12.20
2022-08-01T20:52:17.102Z,9.40
2022-08-01T20:54:48.884Z,9.80
2022-08-01T20:57:25.443Z,10.00
2022-08-01T21:00:02.779Z,11.30
2022-08-01T21:02:47.990Z,14.90
2022-08-01T21:05:29.327Z,9.40
2022-08-01T21:08:08.800Z,7.80
2022-08-01T21:10:45.470Z,8.40
2022-08-01T21:13:25.660Z,8.90
2022-08-01T21:16:23.999Z,11.60
2022-08-01T21:19:18.619Z,10.60
2022-08-01T21:21:56.129Z,13.70
2022-08-01T21:24:38.405Z,8.20
2022-08-01T21:27:10.731Z,11.80
2022-08-01T21:32:16.035Z,8.70
2022-08-01T21:34:51.914Z,10.50
2022-08-01T21:37:24.535Z,14.70
2022-08-01T21:39:58.869Z,10.30
2022-08-01T21:42:31.038Z,10.90
2022-08-01T21:45:05.875Z,11.60
2022-08-01T21:47:38.953Z,10.80
2022-08-01T21:50:11.184Z,12.60
2022-08-01T21:52:47.074Z,12.00
2022-08-01T21:55:35.102Z,9.40
2022-08-01T21:58:28.242Z,16.70
2022-08-01T22:01:07.956Z,9.20
2022-08-01T22:03:46.219Z,9.00
2022-08-01T22:06:20.400Z,9.50
2022-08-01T22:08:57.644Z,11.30
2022-08-01T22:11:32.681Z,8.70
2022-08-01T22:14:06.225Z,8.90
2022-08-01T22:16:40.851Z,10.90
2022-08-01T22:19:37.568Z,11.10
2022-08-01T22:22:29.111Z,10.60
2022-08-01T22:25:01.097Z,13.40
2022-08-01T22:28:06.673Z,14.60
2022-08-01T22:30:28.570Z,15.00
2022-08-01T22:33:15.398Z,10.90
2022-08-01T22:35:50.864Z,10.20
2022-08-01T22:38:27.084Z,12.20
2022-08-01T22:41:05.415Z,8.70
2022-08-01T22:43:44.163Z,9.50
2022-08-01T22:46:26.628Z,13.10
2022-08-01T22:49:09.703Z,9.70
2022-08-01T22:51:54.844Z,9.20
2022-08-01T22:54:36.218Z,9.40
2022-08-01T22:57:16.255Z,10.70
2022-08-01T22:59:58.633Z,8.70
2022-08-01T23:02:32.825Z,9.70
2022-08-01T23:05:08.162Z,11.30
2022-08-01T23:07:46.330Z,14.80
2022-08-01T23:10:20.446Z,12.30
2022-08-01T23:12:53.416Z,10.60
2022-08-01T23:15:26.930Z,9.30
2022-08-01T23:18:00.989Z,11.40
2022-08-01T23:20:35.071Z,9.60
2022-08-01T23:23:07.522Z,9.50
2022-08-01T23:25:39.939Z,9.00
2022-08-01T23:28:13.548Z,10.10
2022-08-01T23:30:46.125Z,8.70
2022-08-01T23:35:48.354Z,8.50
2022-08-01T23:38:20.340Z,9.00
2022-08-01T23:40:52.407Z,9.00
2022-08-01T23:43:24.550Z,10.30
2022-08-01T23:46:04.533Z,9.90
2022-08-01T23:48:38.599Z,11.80
2022-08-01T23:51:17.286Z,8.60
2022-08-01T23:53:56.049Z,10.60
2022-08-01T23:56:27.840Z,10.90
2022-08-01T23:58:59.670Z,10.40
